createdAt,value
2023-03-15T00:00:19.034Z,1001.17
2023-03-15T00:01:18.987Z,1001.17
2023-03-15T00:02:18.992Z,1001.18
2023-03-15T00:03:18.980Z,1001.20
2023-03-15T00:04:18.967Z,1001.24
2023-03-15T00:05:18.994Z,1001.24
2023-03-15T00:06:18.947Z,1001.29
2023-03-15T00:07:18.932Z,1001.23
2023-03-15T00:08:18.899Z,1001.34
2023-03-15T00:09:18.898Z,1001.37
2023-03-15T00:10:18.922Z,1001.33
2023-03-15T00:11:18.886Z,1001.36
2023-03-15T00:12:18.864Z,1001.37
2023-03-15T00:13:18.856Z,1001.36
2023-03-15T00:14:18.862Z,1001.36
2023-03-15T00:15:18.849Z,1001.39
2023-03-15T00:16:18.974Z,1001.39
2023-03-15T00:17:18.828Z,1001.44
2023-03-15T00:18:18.798Z,1001.41
2023-03-15T00:19:18.774Z,1001.43
2023-03-15T00:20:18.818Z,1001.50
2023-03-15T00:21:18.772Z,1001.50
2023-03-15T00:22:18.791Z,1001.51
2023-03-15T00:23:18.750Z,1001.55
2023-03-15T00:24:18.756Z,1001.61
2023-03-15T00:25:18.735Z,1001.60
2023-03-15T00:26:18.718Z,1001.65
2023-03-15T00:27:18.689Z,1001.72
2023-03-15T00:28:18.701Z,1001.70
2023-03-15T00:29:18.655Z,1001.69
2023-03-15T00:30:18.722Z,1001.69
2023-03-15T00:31:18.664Z,1001.69
2023-03-15T00:32:18.642Z,1001.78
2023-03-15T00:33:18.605Z,1001.73
2023-03-15T00:34:18.632Z,1001.78
2023-03-15T00:35:18.640Z,1001.83
2023-03-15T00:36:18.616Z,1001.86
2023-03-15T00:37:18.581Z,1001.82
2023-03-15T00:38:18.592Z,1001.87
2023-03-15T00:39:18.561Z,1001.83
2023-03-15T00:40:18.585Z,1001.86
2023-03-15T00:41:18.551Z,1001.87
2023-03-15T00:42:18.549Z,1001.86
2023-03-15T00:43:18.522Z,1001.87
2023-03-15T00:44:18.507Z,1001.85
2023-03-15T00:45:18.515Z,1001.89
2023-03-15T00:46:18.558Z,1001.96
2023-03-15T00:47:18.468Z,1001.93
2023-03-15T00:48:18.480Z,1001.99
2023-03-15T00:49:18.466Z,1001.94
2023-03-15T00:50:18.485Z,1001.98
2023-03-15T00:51:18.438Z,1002.00
2023-03-15T00:52:18.431Z,1002.00
2023-03-15T00:53:18.408Z,1001.96
2023-03-15T00:54:18.408Z,1002.01
2023-03-15T00:55:18.419Z,1002.01
2023-03-15T00:56:18.400Z,1002.00
2023-03-15T00:57:18.362Z,1002.04
2023-03-15T00:58:18.364Z,1002.01
2023-03-15T00:59:18.329Z,1002.03
2023-03-15T01:00:18.360Z,1002.03
2023-03-15T01:01:18.449Z,1002.04
2023-03-15T01:02:18.341Z,1002.05
2023-03-15T01:03:18.302Z,1002.05
2023-03-15T01:04:18.278Z,1002.06
2023-03-15T01:05:18.301Z,1002.02
2023-03-15T01:06:18.275Z,1002.05
2023-03-15T01:07:18.251Z,1002.08
2023-03-15T01:08:18.244Z,1002.06
2023-03-15T01:09:18.216Z,1002.05
2023-03-15T01:10:18.235Z,1002.12
2023-03-15T01:11:18.207Z,1002.12
2023-03-15T01:12:18.212Z,1002.14
2023-03-15T01:13:18.174Z,1002.16
2023-03-15T01:14:18.197Z,1002.16
2023-03-15T01:15:18.175Z,1002.12
2023-03-15T01:16:18.210Z,1002.13
2023-03-15T01:17:18.125Z,1002.14
2023-03-15T01:18:18.142Z,1002.17
2023-03-15T01:19:18.108Z,1002.15
2023-03-15T01:20:18.133Z,1002.14
2023-03-15T01:21:18.094Z,1002.11
2023-03-15T01:22:18.077Z,1002.12
2023-03-15T01:23:18.084Z,1002.16
2023-03-15T01:24:18.057Z,1002.21
2023-03-15T01:25:18.076Z,1002.23
2023-03-15T01:26:18.058Z,1002.16
2023-03-15T01:27:18.040Z,1002.25
2023-03-15T01:28:17.999Z,1002.26
2023-03-15T01:29:18.017Z,1002.23
2023-03-15T01:30:18.020Z,1002.26
2023-03-15T01:31:18.056Z,1002.34
2023-03-15T01:32:17.981Z,1002.37
2023-03-15T01:33:17.961Z,1002.33
2023-03-15T01:34:17.967Z,1002.35
2023-03-15T01:35:17.964Z,1002.39
2023-03-15T01:36:17.951Z,1002.41
2023-03-15T01:37:17.928Z,1002.45
2023-03-15T01:38:17.922Z,1002.45
2023-03-15T01:39:17.906Z,1002.49
2023-03-15T01:40:17.923Z,1002.51
2023-03-15T01:41:17.867Z,1002.52
2023-03-15T01:42:17.852Z,1002.56
2023-03-15T01:43:17.877Z,1002.56
2023-03-15T01:44:17.846Z,1002.55
2023-03-15T01:45:17.922Z,1002.57
2023-03-15T01:46:17.935Z,1002.59
2023-03-15T01:47:17.823Z,1002.58
2023-03-15T01:48:17.782Z,1002.63
2023-03-15T01:49:17.772Z,1002.68
2023-03-15T01:50:17.796Z,1002.66
2023-03-15T01:51:17.762Z,1002.69
2023-03-15T01:52:17.777Z,1002.69
2023-03-15T01:53:17.739Z,1002.71
2023-03-15T01:54:17.751Z,1002.70
2023-03-15T01:55:17.763Z,1002.70
2023-03-15T01:56:17.716Z,1002.74
2023-03-15T01:57:17.697Z,1002.72
2023-03-15T01:58:17.695Z,1002.73
2023-03-15T01:59:17.667Z,1002.71
2023-03-15T02:00:17.711Z,1002.71
2023-03-15T02:01:17.675Z,1002.73
2023-03-15T02:02:17.694Z,1002.77
2023-03-15T02:03:17.624Z,1002.75
2023-03-15T02:04:17.633Z,1002.75
2023-03-15T02:05:17.645Z,1002.75
2023-03-15T02:06:17.594Z,1002.78
2023-03-15T02:07:17.607Z,1002.76
2023-03-15T02:08:17.581Z,1002.76
2023-03-15T02:09:17.585Z,1002.76
2023-03-15T02:10:17.583Z,1002.75
2023-03-15T02:11:17.559Z,1002.74
2023-03-15T02:12:17.535Z,1002.78
2023-03-15T02:13:17.522Z,1002.81
2023-03-15T02:14:17.526Z,1002.88
2023-03-15T02:15:17.544Z,1002.82
2023-03-15T02:16:17.566Z,1002.82
2023-03-15T02:17:17.468Z,1002.79
2023-03-15T02:18:17.485Z,1002.82
2023-03-15T02:19:17.441Z,1002.84
2023-03-15T02:20:17.483Z,1002.82
2023-03-15T02:21:17.432Z,1002.83
2023-03-15T02:22:17.433Z,1002.84
2023-03-15T02:23:17.419Z,1002.82
2023-03-15T02:24:17.414Z,1002.86
2023-03-15T02:25:17.424Z,1002.87
2023-03-15T02:26:17.374Z,1002.89
2023-03-15T02:27:17.417Z,1002.88
2023-03-15T02:28:17.369Z,1002.90
2023-03-15T02:29:17.352Z,1002.88
2023-03-15T02:30:17.385Z,1002.91
2023-03-15T02:31:17.361Z,1002.84
2023-03-15T02:32:17.323Z,1002.89
2023-03-15T02:33:17.346Z,1002.85
2023-03-15T02:34:17.292Z,1002.88
2023-03-15T02:35:17.322Z,1002.97
2023-03-15T02:36:17.283Z,1002.99
2023-03-15T02:37:17.285Z,1002.94
2023-03-15T02:38:17.256Z,1002.96
2023-03-15T02:39:17.266Z,1002.94
2023-03-15T02:40:17.270Z,1002.88
2023-03-15T02:41:17.226Z,1002.94
2023-03-15T02:42:17.220Z,1002.96
2023-03-15T02:43:17.215Z,1002.91
2023-03-15T02:44:17.202Z,1002.96
2023-03-15T02:45:17.217Z,1002.95
2023-03-15T02:46:17.211Z,1002.93
2023-03-15T02:47:17.181Z,1002.96
2023-03-15T02:48:17.143Z,1002.95
2023-03-15T02:49:17.117Z,1002.98
2023-03-15T02:50:17.144Z,1002.99
2023-03-15T02:51:17.130Z,1003.02
2023-03-15T02:52:17.103Z,1003.02
2023-03-15T02:53:17.092Z,1003.05
2023-03-15T02:54:17.076Z,1003.07
2023-03-15T02:55:17.096Z,1003.07
2023-03-15T02:56:17.067Z,1003.12
2023-03-15T02:57:17.064Z,1003.12
2023-03-15T02:58:17.042Z,1003.13
2023-03-15T02:59:17.038Z,1003.11
2023-03-15T03:00:17.084Z,1003.14
2023-03-15T03:01:17.179Z,1003.14
2023-03-15T03:02:17.043Z,1003.16
2023-03-15T03:03:16.984Z,1003.21
2023-03-15T03:04:16.982Z,1003.21
2023-03-15T03:05:17.000Z,1003.16
2023-03-15T03:06:16.966Z,1003.21
2023-03-15T03:07:16.938Z,1003.26
2023-03-15T03:08:16.937Z,1003.27
2023-03-15T03:09:16.918Z,1003.28
2023-03-15T03:10:16.949Z,1003.29
2023-03-15T03:11:16.890Z,1003.31
2023-03-15T03:12:16.877Z,1003.29
2023-03-15T03:13:16.876Z,1003.31
2023-03-15T03:14:16.875Z,1003.31
2023-03-15T03:15:16.888Z,1003.35
2023-03-15T03:16:16.868Z,1003.35
2023-03-15T03:17:16.852Z,1003.36
2023-03-15T03:18:16.857Z,1003.41
2023-03-15T03:19:16.789Z,1003.43
2023-03-15T03:20:16.818Z,1003.47
2023-03-15T03:21:16.774Z,1003.48
2023-03-15T03:22:16.782Z,1003.50
2023-03-15T03:23:16.807Z,1003.54
2023-03-15T03:24:16.755Z,1003.50
2023-03-15T03:25:16.784Z,1003.53
2023-03-15T03:26:16.994Z,1003.50
2023-03-15T03:27:16.722Z,1003.53
2023-03-15T03:28:16.707Z,1003.55
2023-03-15T03:29:16.946Z,1003.55
2023-03-15T03:30:16.721Z,1003.53
2023-03-15T03:31:16.707Z,1003.52
2023-03-15T03:32:16.676Z,1003.53
2023-03-15T03:33:16.637Z,1003.51
2023-03-15T03:34:16.668Z,1003.57
2023-03-15T03:35:16.690Z,1003.55
2023-03-15T03:36:16.622Z,1003.54
2023-03-15T03:37:16.613Z,1003.60
2023-03-15T03:38:16.613Z,1003.52
2023-03-15T03:39:16.605Z,1003.60
2023-03-15T03:40:16.619Z,1003.57
2023-03-15T03:41:16.568Z,1003.64
2023-03-15T03:42:16.553Z,1003.60
2023-03-15T03:43:16.552Z,1003.68
2023-03-15T03:44:16.552Z,1003.63
2023-03-15T03:45:16.548Z,1003.65
2023-03-15T03:46:16.538Z,1003.75
2023-03-15T03:47:16.500Z,1003.72
2023-03-15T03:48:16.496Z,1003.71
2023-03-15T03:49:16.482Z,1003.72
2023-03-15T03:50:16.513Z,1003.71
2023-03-15T03:51:16.438Z,1003.74
2023-03-15T03:52:16.439Z,1003.76
2023-03-15T03:53:16.416Z,1003.77
2023-03-15T03:54:17.689Z,1003.75
2023-03-15T03:55:16.458Z,1003.77
2023-03-15T03:56:16.408Z,1003.82
2023-03-15T03:57:16.397Z,1003.81
2023-03-15T03:58:16.392Z,1003.87
2023-03-15T03:59:16.374Z,1003.82
2023-03-15T04:00:16.390Z,1003.79
2023-03-15T04:01:16.347Z,1003.79
2023-03-15T04:02:16.367Z,1003.82
2023-03-15T04:03:16.371Z,1003.80
2023-03-15T04:04:16.351Z,1003.81
2023-03-15T04:05:16.327Z,1003.77
2023-03-15T04:06:16.290Z,1003.77
2023-03-15T04:07:17.157Z,1003.75
2023-03-15T04:08:16.279Z,1003.80
2023-03-15T04:09:16.246Z,1003.72
2023-03-15T04:10:16.277Z,1003.78
2023-03-15T04:11:16.227Z,1003.80
2023-03-15T04:12:16.263Z,1003.78
2023-03-15T04:13:16.216Z,1003.79
2023-03-15T04:14:16.217Z,1003.83
2023-03-15T04:15:16.239Z,1003.78
2023-03-15T04:16:16.243Z,1003.82
2023-03-15T04:17:16.163Z,1003.84
2023-03-15T04:18:16.175Z,1003.93
2023-03-15T04:19:16.150Z,1003.91
2023-03-15T04:20:16.174Z,1003.86
2023-03-15T04:21:16.133Z,1003.95
2023-03-15T04:22:16.108Z,1003.96
2023-03-15T04:23:16.093Z,1003.95
2023-03-15T04:24:16.089Z,1003.97
2023-03-15T04:25:16.094Z,1003.98
2023-03-15T04:26:16.068Z,1003.95
2023-03-15T04:27:16.082Z,1003.99
2023-03-15T04:28:16.052Z,1003.98
2023-03-15T04:29:16.040Z,1004.01
2023-03-15T04:30:16.075Z,1003.98
2023-03-15T04:31:16.084Z,1004.03
2023-03-15T04:32:16.012Z,1003.99
2023-03-15T04:33:16.000Z,1004.07
2023-03-15T04:34:15.994Z,1004.02
2023-03-15T04:35:16.033Z,1004.02
2023-03-15T04:36:15.977Z,1004.09
2023-03-15T04:37:15.982Z,1004.15
2023-03-15T04:38:15.944Z,1004.15
2023-03-15T04:39:15.944Z,1004.15
2023-03-15T04:40:15.966Z,1004.13
2023-03-15T04:41:15.914Z,1004.14
2023-03-15T04:42:15.894Z,1004.17
2023-03-15T04:43:15.903Z,1004.14
2023-03-15T04:44:15.891Z,1004.15
2023-03-15T04:45:15.908Z,1004.17
2023-03-15T04:46:15.869Z,1004.17
2023-03-15T04:47:15.862Z,1004.16
2023-03-15T04:48:15.876Z,1004.20
2023-03-15T04:49:15.823Z,1004.18
2023-03-15T04:50:15.828Z,1004.15
2023-03-15T04:51:15.800Z,1004.18
2023-03-15T04:52:15.794Z,1004.17
2023-03-15T04:53:15.797Z,1004.17
2023-03-15T04:54:15.786Z,1004.20
2023-03-15T04:55:15.794Z,1004.23
2023-03-15T04:56:15.730Z,1004.27
2023-03-15T04:57:15.742Z,1004.26
2023-03-15T04:58:15.747Z,1004.25
2023-03-15T04:59:15.727Z,1004.24
2023-03-15T05:00:15.739Z,1004.28
2023-03-15T05:01:15.755Z,1004.26
2023-03-15T05:02:15.737Z,1004.30
2023-03-15T05:03:15.685Z,1004.26
2023-03-15T05:04:15.657Z,1004.35
2023-03-15T05:05:15.690Z,1004.37
2023-03-15T05:06:15.633Z,1004.33
2023-03-15T05:07:15.628Z,1004.38
2023-03-15T05:08:15.616Z,1004.38
2023-03-15T05:09:15.624Z,1004.41
2023-03-15T05:10:15.641Z,1004.40
2023-03-15T05:11:15.604Z,1004.44
2023-03-15T05:12:15.588Z,1004.44
2023-03-15T05:13:15.564Z,1004.45
2023-03-15T05:14:15.559Z,1004.42
2023-03-15T05:15:15.711Z,1004.45
2023-03-15T05:16:15.587Z,1004.46
2023-03-15T05:17:15.530Z,1004.48
2023-03-15T05:18:15.516Z,1004.53
2023-03-15T05:19:15.503Z,1004.56
2023-03-15T05:20:15.529Z,1004.56
2023-03-15T05:21:15.481Z,1004.59
2023-03-15T05:22:15.472Z,1004.60
2023-03-15T05:23:15.599Z,1004.64
2023-03-15T05:24:15.549Z,1004.66
2023-03-15T05:25:15.475Z,1004.58
2023-03-15T05:26:15.418Z,1004.66
2023-03-15T05:27:15.418Z,1004.69
2023-03-15T05:28:15.398Z,1004.71
2023-03-15T05:29:15.417Z,1004.70
2023-03-15T05:30:15.444Z,1004.72
2023-03-15T05:31:15.510Z,1004.72
2023-03-15T05:32:15.360Z,1004.78
2023-03-15T05:33:15.374Z,1004.81
2023-03-15T05:34:15.362Z,1004.84
2023-03-15T05:35:15.382Z,1004.87
2023-03-15T05:36:15.338Z,1004.87
2023-03-15T05:37:15.311Z,1004.84
2023-03-15T05:38:15.313Z,1004.93
2023-03-15T05:39:15.277Z,1004.91
2023-03-15T05:40:15.319Z,1004.93
2023-03-15T05:41:15.260Z,1004.95
2023-03-15T05:42:15.262Z,1004.97
2023-03-15T05:43:15.254Z,1004.94
2023-03-15T05:44:15.218Z,1005.00
2023-03-15T05:45:15.244Z,1004.97
2023-03-15T05:46:15.324Z,1005.01
2023-03-15T05:47:15.197Z,1004.98
2023-03-15T05:48:15.189Z,1005.02
2023-03-15T05:49:15.170Z,1005.01
2023-03-15T05:50:15.221Z,1005.05
2023-03-15T05:51:15.168Z,1005.09
2023-03-15T05:52:15.143Z,1005.10
2023-03-15T05:53:15.128Z,1005.13
2023-03-15T05:54:15.117Z,1005.18
2023-03-15T05:55:15.127Z,1005.13
2023-03-15T05:56:15.077Z,1005.21
2023-03-15T05:57:15.058Z,1005.22
2023-03-15T05:58:15.056Z,1005.29
2023-03-15T05:59:15.070Z,1005.27
2023-03-15T06:00:15.069Z,1005.26
2023-03-15T06:01:15.043Z,1005.27
2023-03-15T06:02:15.048Z,1005.29
2023-03-15T06:03:15.079Z,1005.35
2023-03-15T06:04:15.024Z,1005.37
2023-03-15T06:05:15.057Z,1005.36
2023-03-15T06:06:14.966Z,1005.33
2023-03-15T06:07:14.989Z,1005.35
2023-03-15T06:08:14.951Z,1005.40
2023-03-15T06:09:14.959Z,1005.35
2023-03-15T06:10:14.998Z,1005.40
2023-03-15T06:11:14.938Z,1005.38
2023-03-15T06:12:14.916Z,1005.38
2023-03-15T06:13:17.822Z,1005.41
2023-03-15T06:14:14.872Z,1005.43
2023-03-15T06:15:14.939Z,1005.46
2023-03-15T06:16:14.962Z,1005.42
2023-03-15T06:17:14.872Z,1005.43
2023-03-15T06:18:14.868Z,1005.42
2023-03-15T06:19:14.858Z,1005.47
2023-03-15T06:20:14.888Z,1005.46
2023-03-15T06:21:14.821Z,1005.48
2023-03-15T06:22:14.798Z,1005.52
2023-03-15T06:23:14.811Z,1005.54
2023-03-15T06:24:14.783Z,1005.48
2023-03-15T06:25:14.816Z,1005.52
2023-03-15T06:26:14.766Z,1005.53
2023-03-15T06:27:14.777Z,1005.53
2023-03-15T06:28:14.762Z,1005.56
2023-03-15T06:29:14.736Z,1005.48
2023-03-15T06:30:16.949Z,1005.54
2023-03-15T06:31:14.880Z,1005.52
2023-03-15T06:32:14.690Z,1005.56
2023-03-15T06:33:14.679Z,1005.58
2023-03-15T06:34:14.672Z,1005.58
2023-03-15T06:35:14.721Z,1005.59
2023-03-15T06:36:14.659Z,1005.57
2023-03-15T06:37:16.353Z,1005.63
2023-03-15T06:38:15.617Z,1005.63
2023-03-15T06:39:14.631Z,1005.64
2023-03-15T06:40:14.646Z,1005.69
2023-03-15T06:41:14.623Z,1005.68
2023-03-15T06:42:14.586Z,1005.69
2023-03-15T06:43:14.601Z,1005.69
2023-03-15T06:44:14.562Z,1005.77
2023-03-15T06:45:14.602Z,1005.74
2023-03-15T06:46:14.642Z,1005.73
2023-03-15T06:47:14.532Z,1005.75
2023-03-15T06:48:14.523Z,1005.78
2023-03-15T06:49:14.494Z,1005.80
2023-03-15T06:50:14.539Z,1005.83
2023-03-15T06:51:14.468Z,1005.82
2023-03-15T06:52:14.493Z,1005.83
2023-03-15T06:53:14.460Z,1005.85
2023-03-15T06:54:14.456Z,1005.87
2023-03-15T06:55:14.453Z,1005.89
2023-03-15T06:56:14.414Z,1005.87
2023-03-15T06:57:14.402Z,1005.93
2023-03-15T06:58:14.416Z,1005.93
2023-03-15T06:59:14.413Z,1005.95
2023-03-15T07:00:14.440Z,1005.93
2023-03-15T07:01:14.486Z,1005.95
2023-03-15T07:02:14.368Z,1005.93
2023-03-15T07:03:14.346Z,1006.00
2023-03-15T07:04:14.332Z,1005.94
2023-03-15T07:05:14.413Z,1005.94
2023-03-15T07:06:14.350Z,1005.98
2023-03-15T07:07:14.308Z,1005.98
2023-03-15T07:08:14.296Z,1005.99
2023-03-15T07:09:14.305Z,1005.96
2023-03-15T07:10:14.330Z,1005.97
2023-03-15T07:11:14.276Z,1005.96
2023-03-15T07:12:14.256Z,1005.96
2023-03-15T07:13:14.255Z,1005.98
2023-03-15T07:14:14.208Z,1005.91
2023-03-15T07:15:16.101Z,1005.95
2023-03-15T07:16:14.272Z,1005.98
2023-03-15T07:17:14.197Z,1005.97
2023-03-15T07:18:14.220Z,1006.02
2023-03-15T07:19:14.158Z,1006.00
2023-03-15T07:20:14.195Z,1006.02
2023-03-15T07:21:14.171Z,1006.03
2023-03-15T07:22:14.179Z,1006.09
2023-03-15T07:23:14.147Z,1006.08
2023-03-15T07:24:14.098Z,1006.09
2023-03-15T07:25:14.128Z,1006.11
2023-03-15T07:26:14.078Z,1006.15
2023-03-15T07:27:16.134Z,1006.17
2023-03-15T07:28:14.061Z,1006.11
2023-03-15T07:29:14.072Z,1006.08
2023-03-15T07:30:14.102Z,1006.12
2023-03-15T07:31:14.073Z,1006.12
2023-03-15T07:32:14.073Z,1006.09
2023-03-15T07:33:14.049Z,1006.06
2023-03-15T07:34:14.006Z,1006.10
2023-03-15T07:35:14.045Z,1006.10
2023-03-15T07:36:13.981Z,1006.19
2023-03-15T07:37:13.991Z,1006.10
2023-03-15T07:38:13.961Z,1006.18
2023-03-15T07:39:13.957Z,1006.15
2023-03-15T07:40:13.977Z,1006.18
2023-03-15T07:41:13.908Z,1006.20
2023-03-15T07:42:13.915Z,1006.29
2023-03-15T07:43:13.894Z,1006.30
2023-03-15T07:44:13.886Z,1006.33
2023-03-15T07:45:13.940Z,1006.40
2023-03-15T07:46:13.924Z,1006.36
2023-03-15T07:47:13.846Z,1006.38
2023-03-15T07:48:13.859Z,1006.37
2023-03-15T07:49:13.835Z,1006.35
2023-03-15T07:50:16.835Z,1006.34
2023-03-15T07:51:13.833Z,1006.40
2023-03-15T07:52:13.791Z,1006.44
2023-03-15T07:53:13.804Z,1006.36
2023-03-15T07:54:13.786Z,1006.42
2023-03-15T07:55:13.786Z,1006.40
2023-03-15T07:56:13.737Z,1006.43
2023-03-15T07:57:13.728Z,1006.50
2023-03-15T07:58:13.721Z,1006.48
2023-03-15T07:59:13.715Z,1006.53
2023-03-15T08:00:13.747Z,1006.54
2023-03-15T08:01:13.725Z,1006.56
2023-03-15T08:02:13.746Z,1006.63
2023-03-15T08:03:13.705Z,1006.66
2023-03-15T08:04:13.656Z,1006.71
2023-03-15T08:05:13.696Z,1006.66
2023-03-15T08:06:13.630Z,1006.65
2023-03-15T08:07:13.608Z,1006.66
2023-03-15T08:08:13.593Z,1006.68
2023-03-15T08:09:13.610Z,1006.66
2023-03-15T08:10:13.636Z,1006.70
2023-03-15T08:11:13.584Z,1006.76
2023-03-15T08:12:13.583Z,1006.70
2023-03-15T08:13:13.574Z,1006.74
2023-03-15T08:14:13.549Z,1006.74
2023-03-15T08:15:13.555Z,1006.78
2023-03-15T08:16:13.580Z,1006.73
2023-03-15T08:17:13.523Z,1006.80
2023-03-15T08:18:13.489Z,1006.81
2023-03-15T08:19:13.532Z,1006.75
2023-03-15T08:20:13.490Z,1006.81
2023-03-15T08:21:13.457Z,1006.79
2023-03-15T08:22:13.454Z,1006.85
2023-03-15T08:23:13.455Z,1006.84
2023-03-15T08:24:13.496Z,1006.83
2023-03-15T08:25:13.483Z,1006.85
2023-03-15T08:26:13.383Z,1006.85
2023-03-15T08:27:13.398Z,1006.77
2023-03-15T08:28:13.365Z,1006.80
2023-03-15T08:29:13.382Z,1006.85
2023-03-15T08:30:13.380Z,1006.90
2023-03-15T08:31:13.393Z,1006.91
2023-03-15T08:32:13.336Z,1006.93
2023-03-15T08:33:13.336Z,1006.95
2023-03-15T08:34:13.302Z,1006.93
2023-03-15T08:35:15.705Z,1006.99
2023-03-15T08:36:13.378Z,1006.91
2023-03-15T08:37:13.297Z,1007.07
2023-03-15T08:38:13.270Z,1006.96
2023-03-15T08:39:13.246Z,1006.94
2023-03-15T08:40:13.274Z,1007.03
2023-03-15T08:41:13.242Z,1006.98
2023-03-15T08:42:13.230Z,1007.02
2023-03-15T08:43:13.216Z,1006.95
2023-03-15T08:44:13.226Z,1007.01
2023-03-15T08:45:13.259Z,1007.00
2023-03-15T08:46:13.226Z,1007.04
2023-03-15T08:47:13.174Z,1007.01
2023-03-15T08:48:13.151Z,1007.10
2023-03-15T08:49:13.161Z,1007.02
2023-03-15T08:50:13.178Z,1007.13
2023-03-15T08:51:13.144Z,1007.08
2023-03-15T08:52:13.116Z,1007.07
2023-03-15T08:53:13.122Z,1007.07
2023-03-15T08:54:13.093Z,1007.13
2023-03-15T08:55:13.136Z,1007.12
2023-03-15T08:56:13.069Z,1007.10
2023-03-15T08:57:13.040Z,1007.17
2023-03-15T08:58:13.038Z,1007.06
2023-03-15T08:59:19.428Z,1007.09
2023-03-15T09:00:14.056Z,1007.10
2023-03-15T09:01:13.006Z,1007.10
2023-03-15T09:02:13.034Z,1007.09
2023-03-15T09:03:12.996Z,1007.12
2023-03-15T09:04:13.063Z,1007.15
2023-03-15T09:05:12.995Z,1007.19
2023-03-15T09:06:12.960Z,1007.19
2023-03-15T09:07:12.956Z,1007.18
2023-03-15T09:08:12.944Z,1007.14
2023-03-15T09:09:12.907Z,1007.13
2023-03-15T09:10:12.934Z,1007.16
2023-03-15T09:11:12.876Z,1007.17
2023-03-15T09:12:12.894Z,1007.19
2023-03-15T09:13:12.884Z,1007.10
2023-03-15T09:14:12.868Z,1007.09
2023-03-15T09:15:12.910Z,1007.15
2023-03-15T09:16:12.879Z,1007.27
2023-03-15T09:17:12.877Z,1007.21
2023-03-15T09:18:12.799Z,1007.17
2023-03-15T09:19:12.803Z,1007.29
2023-03-15T09:20:12.827Z,1007.24
2023-03-15T09:21:12.780Z,1007.18
2023-03-15T09:22:16.913Z,1007.25
2023-03-15T09:23:13.771Z,1007.26
2023-03-15T09:24:12.826Z,1007.31
2023-03-15T09:25:12.794Z,1007.26
2023-03-15T09:26:12.733Z,1007.19
2023-03-15T09:27:12.708Z,1007.33
2023-03-15T09:28:12.701Z,1007.32
2023-03-15T09:29:12.686Z,1007.42
2023-03-15T09:30:12.735Z,1007.49
2023-03-15T09:31:12.713Z,1007.52
2023-03-15T09:32:12.681Z,1007.59
2023-03-15T09:33:12.682Z,1007.42
2023-03-15T09:34:12.655Z,1007.48
2023-03-15T09:35:12.661Z,1007.54
2023-03-15T09:36:12.614Z,1007.42
2023-03-15T09:37:12.617Z,1007.56
2023-03-15T09:38:12.603Z,1007.57
2023-03-15T09:39:12.573Z,1007.51
2023-03-15T09:40:12.604Z,1007.62
2023-03-15T09:41:12.563Z,1007.52
2023-03-15T09:42:12.559Z,1007.53
2023-03-15T09:43:12.551Z,1007.55
2023-03-15T09:44:12.555Z,1007.50
2023-03-15T09:45:12.531Z,1007.54
2023-03-15T09:46:12.521Z,1007.51
2023-03-15T09:47:12.508Z,1007.51
2023-03-15T09:48:12.479Z,1007.55
2023-03-15T09:49:12.484Z,1007.70
2023-03-15T09:50:12.519Z,1007.61
2023-03-15T09:51:12.454Z,1007.61
2023-03-15T09:52:12.443Z,1007.63
2023-03-15T09:53:12.459Z,1007.70
2023-03-15T09:54:12.439Z,1007.62
2023-03-15T09:55:12.492Z,1007.71
2023-03-15T09:56:12.397Z,1007.64
2023-03-15T09:57:12.362Z,1007.64
2023-03-15T09:58:12.357Z,1007.66
2023-03-15T09:59:12.339Z,1007.68
2023-03-15T10:00:12.385Z,1007.72
2023-03-15T10:01:12.412Z,1007.75
2023-03-15T10:02:12.336Z,1007.84
2023-03-15T10:03:12.389Z,1007.79
2023-03-15T10:04:12.309Z,1007.78
2023-03-15T10:05:12.329Z,1007.86
2023-03-15T10:06:12.279Z,1007.85
2023-03-15T10:07:12.273Z,1007.83
2023-03-15T10:08:12.267Z,1007.92
2023-03-15T10:09:12.253Z,1007.83
2023-03-15T10:10:12.220Z,1007.87
2023-03-15T10:11:12.280Z,1007.93
2023-03-15T10:12:12.217Z,1007.98
2023-03-15T10:13:12.208Z,1007.92
2023-03-15T10:14:12.210Z,1007.97
2023-03-15T10:15:12.169Z,1007.97
2023-03-15T10:16:12.322Z,1007.89
2023-03-15T10:17:12.194Z,1007.99
2023-03-15T10:18:12.171Z,1008.02
2023-03-15T10:19:12.145Z,1008.01
2023-03-15T10:20:12.147Z,1008.04
2023-03-15T10:21:12.144Z,1008.05
2023-03-15T10:22:12.086Z,1008.01
2023-03-15T10:23:12.090Z,1008.06
2023-03-15T10:24:12.129Z,1008.05
2023-03-15T10:25:12.067Z,1008.00
2023-03-15T10:26:13.333Z,1008.03
2023-03-15T10:27:12.048Z,1008.10
2023-03-15T10:28:12.018Z,1008.09
2023-03-15T10:29:11.996Z,1008.10
2023-03-15T10:30:11.993Z,1008.13
2023-03-15T10:31:16.273Z,1008.16
2023-03-15T10:32:12.999Z,1008.07
2023-03-15T10:33:12.015Z,1008.11
2023-03-15T10:34:11.994Z,1008.10
2023-03-15T10:35:11.976Z,1008.02
2023-03-15T10:36:12.035Z,1008.21
2023-03-15T10:37:11.925Z,1008.04
2023-03-15T10:38:11.916Z,1008.10
2023-03-15T10:39:11.898Z,1008.11
2023-03-15T10:40:11.873Z,1008.09
2023-03-15T10:41:15.259Z,1008.08
2023-03-15T10:42:11.881Z,1008.01
2023-03-15T10:43:11.834Z,1008.06
2023-03-15T10:44:11.832Z,1008.04
2023-03-15T10:45:11.814Z,1008.05
2023-03-15T10:46:11.936Z,1008.03
2023-03-15T10:47:22.447Z,1008.09
2023-03-15T10:48:12.782Z,1008.04
2023-03-15T10:49:11.806Z,1008.00
2023-03-15T10:50:11.779Z,1008.04
2023-03-15T10:51:12.617Z,1008.04
2023-03-15T10:52:11.767Z,1008.01
2023-03-15T10:53:11.744Z,1008.00
2023-03-15T10:54:11.727Z,1008.11
2023-03-15T10:55:11.725Z,1008.06
2023-03-15T10:56:11.747Z,1008.08
2023-03-15T10:57:11.690Z,1008.04
2023-03-15T10:58:11.678Z,1008.03
2023-03-15T10:59:13.083Z,1008.05
2023-03-15T11:00:11.652Z,1008.04
2023-03-15T11:01:11.694Z,1008.07
2023-03-15T11:02:11.658Z,1008.04
2023-03-15T11:03:11.660Z,1008.06
2023-03-15T11:04:11.611Z,1008.03
2023-03-15T11:05:11.601Z,1008.06
2023-03-15T11:06:11.607Z,1008.10
2023-03-15T11:07:11.572Z,1008.00
2023-03-15T11:08:11.573Z,1008.05
2023-03-15T11:09:11.547Z,1008.04
2023-03-15T11:10:11.544Z,1008.05
2023-03-15T11:11:11.579Z,1008.08
2023-03-15T11:12:11.527Z,1008.11
2023-03-15T11:13:11.506Z,1008.10
2023-03-15T11:14:11.481Z,1008.09
2023-03-15T11:15:11.487Z,1008.04
2023-03-15T11:16:11.610Z,1008.02
2023-03-15T11:17:11.513Z,1008.01
2023-03-15T11:18:11.475Z,1007.88
2023-03-15T11:19:11.423Z,1008.01
2023-03-15T11:20:11.432Z,1007.99
2023-03-15T11:21:11.462Z,1007.96
2023-03-15T11:22:11.418Z,1007.97
2023-03-15T11:23:11.379Z,1007.96
2023-03-15T11:24:11.386Z,1007.99
2023-03-15T11:25:11.366Z,1008.04
2023-03-15T11:26:14.098Z,1007.97
2023-03-15T11:27:12.357Z,1008.03
2023-03-15T11:28:11.330Z,1007.97
2023-03-15T11:29:11.299Z,1007.88
2023-03-15T11:30:11.302Z,1007.96
2023-03-15T11:31:11.402Z,1007.95
2023-03-15T11:32:11.308Z,1007.97
2023-03-15T11:33:11.279Z,1007.87
2023-03-15T11:34:11.278Z,1007.87
2023-03-15T11:35:11.248Z,1007.90
2023-03-15T11:36:12.440Z,1007.84
2023-03-15T11:37:13.112Z,1007.82
2023-03-15T11:38:15.198Z,1007.79
2023-03-15T11:39:11.207Z,1007.74
2023-03-15T11:40:12.596Z,1007.73
2023-03-15T11:41:11.211Z,1007.73
2023-03-15T11:42:11.331Z,1007.78
2023-03-15T11:43:11.186Z,1007.71
2023-03-15T11:44:11.158Z,1007.79
2023-03-15T11:45:11.141Z,1007.86
2023-03-15T11:46:11.302Z,1007.76
2023-03-15T11:47:11.145Z,1007.82
2023-03-15T11:48:11.124Z,1007.82
2023-03-15T11:49:11.096Z,1007.84
2023-03-15T11:50:11.096Z,1007.78
2023-03-15T11:51:11.124Z,1007.82
2023-03-15T11:52:11.078Z,1007.67
2023-03-15T11:53:11.051Z,1007.77
2023-03-15T11:54:11.049Z,1007.69
2023-03-15T11:55:11.039Z,1007.71
2023-03-15T11:56:11.116Z,1007.77
2023-03-15T11:57:11.033Z,1007.71
2023-03-15T11:58:11.001Z,1007.75
2023-03-15T11:59:11.004Z,1007.80
2023-03-15T12:00:11.000Z,1007.75
2023-03-15T12:01:10.980Z,1007.75
2023-03-15T12:02:11.150Z,1007.80
2023-03-15T12:03:10.952Z,1007.84
2023-03-15T12:04:10.932Z,1007.80
2023-03-15T12:05:17.965Z,1007.81